createdAt,value
2018-09-03T00:00:31.003Z,4.83
2018-09-03T00:05:35.741Z,5.00
2018-09-03T00:10:39.358Z,5.53
2018-09-03T00:15:42.840Z,4.67
2018-09-03T00:20:46.515Z,5.10
2018-09-03T00:25:49.977Z,6.87
2018-09-03T00:30:57.613Z,5.20
2018-09-03T00:36:06.805Z,7.20
2018-09-03T00:41:15.944Z,5.77
2018-09-03T00:46:24.666Z,5.80
2018-09-03T00:51:29.242Z,4.57
2018-09-03T00:56:32.840Z,5.63
2018-09-03T01:01:36.293Z,4.13
2018-09-03T01:06:39.840Z,6.17
2018-09-03T01:11:43.363Z,4.93
2018-09-03T01:16:46.930Z,5.83
2018-09-03T01:21:50.418Z,10.13
2018-09-03T01:26:54.296Z,5.23
2018-09-03T01:31:57.806Z,7.70
2018-09-03T01:37:01.402Z,5.53
2018-09-03T01:42:04.945Z,3.77
2018-09-03T01:47:08.561Z,5.13
2018-09-03T01:52:12.206Z,4.90
2018-09-03T01:57:16.253Z,4.20
2018-09-03T02:02:19.905Z,5.80
2018-09-03T02:07:23.437Z,5.53
2018-09-03T02:12:27.370Z,4.23
2018-09-03T02:17:30.922Z,5.47
2018-09-03T02:22:35.684Z,4.47
2018-09-03T02:27:39.807Z,12.97
2018-09-03T02:32:43.546Z,6.07
2018-09-03T02:37:47.275Z,5.20
2018-09-03T02:42:50.819Z,6.67
2018-09-03T02:47:54.338Z,5.63
2018-09-03T02:52:57.972Z,4.90
2018-09-03T02:58:01.600Z,4.50
2018-09-03T03:03:05.109Z,4.43
2018-09-03T03:08:08.669Z,5.30
2018-09-03T03:13:12.200Z,4.37
2018-09-03T03:18:16.056Z,4.20
2018-09-03T03:23:19.677Z,5.73
2018-09-03T03:28:23.664Z,5.73
2018-09-03T03:33:27.538Z,6.40
2018-09-03T03:38:31.261Z,5.63
2018-09-03T03:43:37.656Z,4.40
2018-09-03T03:48:41.319Z,3.37
2018-09-03T03:53:44.767Z,5.73
2018-09-03T03:58:48.709Z,4.60
2018-09-03T04:03:53.337Z,4.17
2018-09-03T04:08:56.889Z,4.43
2018-09-03T04:14:00.623Z,4.80
2018-09-03T04:19:04.222Z,4.57
2018-09-03T04:24:07.971Z,3.20
2018-09-03T04:29:11.513Z,3.73
2018-09-03T04:34:16.125Z,5.57
2018-09-03T04:39:19.813Z,4.10
2018-09-03T04:44:23.427Z,3.97
2018-09-03T04:49:27.080Z,4.20
2018-09-03T04:54:30.762Z,4.77
2018-09-03T04:59:34.290Z,4.77
2018-09-03T05:04:37.763Z,4.70
2018-09-03T05:09:42.608Z,4.83
2018-09-03T05:14:46.115Z,5.23
2018-09-03T05:19:50.475Z,5.30
2018-09-03T05:24:54.487Z,6.90
2018-09-03T05:29:58.049Z,8.80
2018-09-03T05:35:02.394Z,8.23
2018-09-03T05:40:06.605Z,7.33
2018-09-03T05:45:10.154Z,6.93
2018-09-03T05:50:13.990Z,41.30
2018-09-03T05:55:17.557Z,11.20
2018-09-03T06:00:28.109Z,7.97
2018-09-03T06:05:31.825Z,7.70
2018-09-03T06:10:35.698Z,10.40
2018-09-03T06:15:39.227Z,12.23
2018-09-03T06:20:42.963Z,9.33
2018-09-03T06:25:46.424Z,6.80
2018-09-03T06:30:49.945Z,8.63
2018-09-03T06:35:54.567Z,6.93
2018-09-03T06:40:58.161Z,8.57
2018-09-03T06:46:02.259Z,11.00
2018-09-03T06:51:07.607Z,7.97
2018-09-03T06:56:11.705Z,10.17
2018-09-03T07:01:15.225Z,9.57
2018-09-03T07:06:20.094Z,10.53
2018-09-03T07:11:23.665Z,9.83
2018-09-03T07:16:27.161Z,7.37
2018-09-03T07:21:30.704Z,7.63
2018-09-03T07:26:34.249Z,9.03
2018-09-03T07:31:38.319Z,8.93
2018-09-03T07:36:42.658Z,8.77
2018-09-03T07:41:46.349Z,8.57
2018-09-03T07:46:49.848Z,10.03
2018-09-03T07:51:53.853Z,9.83
2018-09-03T07:56:57.378Z,13.80
2018-09-03T08:02:01.478Z,7.67
2018-09-03T08:07:05.105Z,7.73
2018-09-03T08:12:08.694Z,7.70
2018-09-03T08:17:12.160Z,8.03
2018-09-03T08:22:15.734Z,12.97
2018-09-03T08:27:19.223Z,8.70
2018-09-03T08:32:22.976Z,8.73
2018-09-03T08:37:26.491Z,7.90
2018-09-03T08:42:30.337Z,9.03
2018-09-03T08:47:33.825Z,8.20
2018-09-03T08:52:38.079Z,9.13
2018-09-03T08:57:41.730Z,8.00
2018-09-03T09:02:45.728Z,9.47
2018-09-03T09:07:49.210Z,11.63
2018-09-03T09:12:52.725Z,9.77
2018-09-03T09:17:56.265Z,10.90
2018-09-03T09:22:59.858Z,9.57
2018-09-03T09:28:04.237Z,11.23
2018-09-03T09:33:08.108Z,14.60
2018-09-03T09:38:11.573Z,10.23
2018-09-03T09:43:15.254Z,18.00
2018-09-03T09:48:18.679Z,14.27
2018-09-03T09:53:22.238Z,12.30
2018-09-03T09:58:25.892Z,11.80
2018-09-03T10:03:29.556Z,13.37
2018-09-03T10:08:33.026Z,13.37
2018-09-03T10:13:36.789Z,13.40
2018-09-03T10:18:40.636Z,12.40
2018-09-03T10:23:44.440Z,14.30
2018-09-03T10:28:55.732Z,13.17
2018-09-03T10:33:59.462Z,15.70
2018-09-03T10:39:03.089Z,12.77
2018-09-03T10:44:07.595Z,11.57
2018-09-03T10:49:11.073Z,11.67
2018-09-03T10:54:14.710Z,14.50
2018-09-03T10:59:18.263Z,15.70
2018-09-03T11:04:21.873Z,15.57
2018-09-03T11:09:25.429Z,14.93
2018-09-03T11:14:29.172Z,16.07
2018-09-03T11:19:35.397Z,16.67
2018-09-03T11:24:39.688Z,16.13
2018-09-03T11:29:43.932Z,20.03
2018-09-03T11:34:47.902Z,19.73
2018-09-03T11:39:51.373Z,24.17
2018-09-03T11:44:54.933Z,18.10
2018-09-03T11:49:58.415Z,18.67
2018-09-03T11:55:02.256Z,17.27
2018-09-03T12:00:08.415Z,18.73
2018-09-03T12:05:13.074Z,16.87
2018-09-03T12:10:16.693Z,17.50
2018-09-03T12:15:27.254Z,16.33
2018-09-03T12:20:31.008Z,18.03
2018-09-03T12:25:34.781Z,17.03
2018-09-03T12:30:38.251Z,19.83
2018-09-03T12:35:42.181Z,21.47
2018-09-03T12:40:45.997Z,20.93
2018-09-03T12:45:54.865Z,21.47
2018-09-03T12:50:59.156Z,22.83
2018-09-03T12:56:03.432Z,32.60
2018-09-03T13:01:07.137Z,20.63
2018-09-03T13:06:10.995Z,21.50
2018-09-03T13:11:14.465Z,25.20
2018-09-03T13:16:18.574Z,24.90
2018-09-03T13:21:22.112Z,22.47
2018-09-03T13:26:25.694Z,25.63
2018-09-03T13:31:29.429Z,28.23
2018-09-03T13:36:35.475Z,26.53
2018-09-03T13:41:39.543Z,30.77
2018-09-03T13:46:43.105Z,25.83
2018-09-03T13:51:46.584Z,26.67
2018-09-03T13:56:50.174Z,23.93
2018-09-03T14:01:53.807Z,27.30
2018-09-03T14:06:57.654Z,26.17
2018-09-03T14:12:01.196Z,23.23
2018-09-03T14:17:04.753Z,25.70
2018-09-03T14:22:08.782Z,23.70
2018-09-03T14:27:12.401Z,25.10
2018-09-03T14:32:15.910Z,23.00
2018-09-03T14:37:19.687Z,22.70
2018-09-03T14:42:23.249Z,22.13
2018-09-03T14:47:27.017Z,22.70
2018-09-03T14:52:30.492Z,26.73
2018-09-03T14:57:34.051Z,26.70
2018-09-03T15:02:37.553Z,25.90
2018-09-03T15:07:41.073Z,26.73
2018-09-03T15:12:44.600Z,24.13
2018-09-03T15:17:48.202Z,26.17
2018-09-03T15:22:51.753Z,24.90
2018-09-03T15:27:56.585Z,27.37
2018-09-03T15:33:00.104Z,24.90
2018-09-03T15:38:04.497Z,23.50
2018-09-03T15:43:08.061Z,26.17
2018-09-03T15:48:12.529Z,26.53
2018-09-03T15:53:16.016Z,29.27
2018-09-03T15:58:19.750Z,24.27
2018-09-03T16:03:23.946Z,28.33
2018-09-03T16:08:27.511Z,27.40
2018-09-03T16:13:31.055Z,24.57
2018-09-03T16:18:34.761Z,26.53
2018-09-03T16:23:38.353Z,25.33
2018-09-03T16:28:41.891Z,28.70
2018-09-03T16:33:45.406Z,24.23
2018-09-03T16:38:49.570Z,24.13
2018-09-03T16:43:54.238Z,23.17
2018-09-03T16:48:58.942Z,26.10
2018-09-03T16:54:02.725Z,26.43
2018-09-03T16:59:06.464Z,23.63
2018-09-03T17:04:10.215Z,23.63
2018-09-03T17:09:14.023Z,25.07
2018-09-03T17:14:23.682Z,24.17
2018-09-03T17:19:27.486Z,21.63
2018-09-03T17:24:31.497Z,22.07
2018-09-03T17:29:35.060Z,23.47
2018-09-03T17:34:38.581Z,22.93
2018-09-03T17:39:42.401Z,23.53
2018-09-03T17:44:46.107Z,23.47
2018-09-03T17:49:49.807Z,20.50
2018-09-03T17:54:53.458Z,21.10
2018-09-03T17:59:57.068Z,21.77
2018-09-03T18:05:00.785Z,24.60
2018-09-03T18:10:04.372Z,20.37
2018-09-03T18:15:08.085Z,28.40
2018-09-03T18:20:11.784Z,22.83
2018-09-03T18:25:15.335Z,22.23
2018-09-03T18:30:32.101Z,23.93
2018-09-03T18:35:35.592Z,21.83
2018-09-03T18:40:39.478Z,22.93
2018-09-03T18:45:43.003Z,23.27
2018-09-03T18:50:46.513Z,24.37
2018-09-03T18:55:50.082Z,23.47
2018-09-03T19:00:54.181Z,24.57
2018-09-03T19:05:57.944Z,25.87
2018-09-03T19:11:01.504Z,24.33
2018-09-03T19:16:05.261Z,27.50
2018-09-03T19:21:08.973Z,25.33
2018-09-03T19:26:12.461Z,26.73
2018-09-03T19:31:16.025Z,24.17
2018-09-03T19:36:19.618Z,27.97
2018-09-03T19:41:23.993Z,31.57
2018-09-03T19:46:28.113Z,25.93
2018-09-03T19:51:32.828Z,27.30
2018-09-03T19:56:37.010Z,29.93
2018-09-03T20:01:41.425Z,33.57
2018-09-03T20:06:46.020Z,28.30
2018-09-03T20:11:50.090Z,32.60
2018-09-03T20:16:54.048Z,28.80
2018-09-03T20:21:58.006Z,29.53
2018-09-03T20:27:01.542Z,34.07
2018-09-03T20:32:05.273Z,32.60
2018-09-03T20:37:09.749Z,35.17
2018-09-03T20:42:13.292Z,36.00
2018-09-03T20:47:16.785Z,36.80
2018-09-03T20:52:20.950Z,35.30
2018-09-03T20:57:25.567Z,36.47
2018-09-03T21:02:29.100Z,38.83
2018-09-03T21:07:32.732Z,36.47
2018-09-03T21:12:37.081Z,33.10
2018-09-03T21:17:41.156Z,30.50
2018-09-03T21:22:44.677Z,34.60
2018-09-03T21:27:48.231Z,32.90
2018-09-03T21:32:51.986Z,36.47
2018-09-03T21:37:56.126Z,35.63
2018-09-03T21:43:00.164Z,33.20
2018-09-03T21:48:04.136Z,31.70
2018-09-03T21:53:07.802Z,36.17
2018-09-03T21:58:11.290Z,35.57
2018-09-03T22:03:14.990Z,39.67
2018-09-03T22:08:18.784Z,38.23
2018-09-03T22:13:22.511Z,37.70
2018-09-03T22:18:26.500Z,40.30
2018-09-03T22:23:30.082Z,40.97
2018-09-03T22:28:34.753Z,37.73
2018-09-03T22:33:38.293Z,40.97
2018-09-03T22:38:41.795Z,45.97
2018-09-03T22:43:45.411Z,40.80
2018-09-03T22:48:49.157Z,42.17
2018-09-03T22:53:53.820Z,40.13
2018-09-03T22:58:57.281Z,41.23
2018-09-03T23:04:00.837Z,42.13
2018-09-03T23:09:05.108Z,37.27
2018-09-03T23:14:09.566Z,47.57
2018-09-03T23:19:13.017Z,43.60
2018-09-03T23:24:16.611Z,50.97
2018-09-03T23:29:23.405Z,49.90
2018-09-03T23:34:27.033Z,56.13
2018-09-03T23:39:30.530Z,66.40
2018-09-03T23:44:34.652Z,50.60
2018-09-03T23:49:38.178Z,61.97
2018-09-03T23:54:42.538Z,54.03
2018-09-03T23:59:46.064Z,55.90
